createdAt,value
2019-04-16T00:02:10.933Z,99.90
2019-04-16T00:05:00.142Z,99.90
2019-04-16T00:08:19.594Z,99.90
2019-04-16T00:11:00.791Z,99.90
2019-04-16T00:13:46.691Z,99.90
2019-04-16T00:16:16.803Z,99.90
2019-04-16T00:18:57.334Z,99.90
2019-04-16T00:21:38.422Z,99.90
2019-04-16T00:24:33.377Z,99.90
2019-04-16T00:27:03.755Z,99.90
2019-04-16T00:29:33.916Z,99.90
2019-04-16T00:32:10.116Z,99.90
2019-04-16T00:34:44.574Z,99.90
2019-04-16T00:37:11.702Z,99.90
2019-04-16T00:39:43.050Z,99.90
2019-04-16T00:42:13.157Z,99.90
2019-04-16T00:44:43.415Z,99.90
2019-04-16T00:47:13.493Z,99.90
2019-04-16T00:49:44.126Z,99.90
2019-04-16T00:52:14.052Z,99.90
2019-04-16T00:54:43.888Z,99.90
2019-04-16T00:57:17.657Z,99.90
2019-04-16T00:59:45.521Z,99.90
2019-04-16T01:02:15.711Z,99.90
2019-04-16T01:04:45.918Z,99.90
2019-04-16T01:07:15.963Z,99.90
2019-04-16T01:09:45.960Z,99.90
2019-04-16T01:12:15.821Z,99.90
2019-04-16T01:14:46.083Z,99.90
2019-04-16T01:17:16.296Z,99.90
2019-04-16T01:19:46.161Z,99.90
2019-04-16T01:22:16.736Z,99.90
2019-04-16T01:24:51.535Z,99.90
2019-04-16T01:27:20.487Z,99.90
2019-04-16T01:29:50.633Z,99.90
2019-04-16T01:32:45.844Z,99.90
2019-04-16T01:35:34.906Z,99.90
2019-04-16T01:38:39.075Z,99.90
2019-04-16T01:41:11.612Z,99.90
2019-04-16T01:43:41.859Z,99.90
2019-04-16T01:46:11.803Z,99.90
2019-04-16T01:48:42.227Z,99.90
2019-04-16T01:51:12.615Z,99.90
2019-04-16T01:53:45.679Z,99.90
2019-04-16T01:56:15.665Z,99.90
2019-04-16T01:58:46.154Z,99.90
2019-04-16T02:01:16.825Z,99.90
2019-04-16T02:03:48.955Z,99.90
2019-04-16T02:06:18.561Z,99.90
2019-04-16T02:08:48.538Z,99.90
2019-04-16T02:11:18.694Z,99.90
2019-04-16T02:13:48.520Z,99.90
2019-04-16T02:16:18.460Z,99.90
2019-04-16T02:18:48.433Z,99.90
2019-04-16T02:21:18.584Z,99.90
2019-04-16T02:23:48.787Z,99.90
2019-04-16T02:26:20.541Z,99.90
2019-04-16T02:28:50.579Z,99.90
2019-04-16T02:31:21.857Z,99.90
2019-04-16T02:33:52.008Z,99.90
2019-04-16T02:36:21.900Z,99.90
2019-04-16T02:38:53.182Z,99.90
2019-04-16T02:41:24.751Z,99.90
2019-04-16T02:43:54.650Z,99.90
2019-04-16T02:46:30.824Z,99.90
2019-04-16T02:48:56.777Z,99.90
2019-04-16T02:51:39.577Z,99.90
2019-04-16T02:54:32.282Z,99.90
2019-04-16T02:57:07.137Z,99.90
2019-04-16T02:59:46.060Z,99.90
2019-04-16T03:02:41.982Z,99.90
2019-04-16T03:05:26.595Z,99.90
2019-04-16T03:07:58.219Z,99.90
2019-04-16T03:10:28.497Z,99.90
2019-04-16T03:12:58.567Z,99.90
2019-04-16T03:15:44.886Z,99.90
2019-04-16T03:18:16.209Z,99.90
2019-04-16T03:20:46.253Z,99.90
2019-04-16T03:23:16.190Z,99.90
2019-04-16T03:25:46.103Z,99.90
2019-04-16T03:28:16.410Z,99.90
2019-04-16T03:30:46.309Z,99.90
2019-04-16T03:33:16.609Z,99.90
2019-04-16T03:35:46.691Z,99.90
2019-04-16T03:38:16.607Z,99.90
2019-04-16T03:40:46.613Z,99.90
2019-04-16T03:43:16.854Z,99.90
2019-04-16T03:45:46.742Z,99.90
2019-04-16T03:48:17.004Z,99.90
2019-04-16T03:50:46.903Z,99.90
2019-04-16T03:53:18.026Z,99.90
2019-04-16T03:55:48.489Z,99.90
2019-04-16T03:58:18.536Z,99.90
2019-04-16T04:00:48.486Z,99.90
2019-04-16T04:03:18.795Z,99.90
2019-04-16T04:05:55.807Z,99.90
2019-04-16T04:08:26.366Z,99.90
2019-04-16T04:10:56.637Z,99.90
2019-04-16T04:13:26.757Z,99.90
2019-04-16T04:15:58.621Z,99.90
2019-04-16T04:18:29.758Z,99.90
2019-04-16T04:21:00.085Z,99.90
2019-04-16T04:23:29.932Z,99.90
2019-04-16T04:25:59.861Z,99.90
2019-04-16T04:28:30.086Z,99.90
2019-04-16T04:31:01.927Z,99.90
2019-04-16T04:33:41.854Z,99.90
2019-04-16T04:36:11.038Z,99.90
2019-04-16T04:38:41.047Z,99.90
2019-04-16T04:41:11.325Z,99.90
2019-04-16T04:43:41.884Z,99.90
2019-04-16T04:46:14.752Z,99.90
2019-04-16T04:48:44.233Z,99.90
2019-04-16T04:51:14.416Z,99.90
2019-04-16T04:53:47.526Z,99.90
2019-04-16T04:56:19.265Z,99.90
2019-04-16T04:58:48.023Z,99.90
2019-04-16T05:01:17.939Z,99.90
2019-04-16T05:04:08.322Z,99.90
2019-04-16T05:06:38.762Z,99.90
2019-04-16T05:09:08.758Z,99.90
2019-04-16T05:11:39.307Z,99.90
2019-04-16T05:14:09.320Z,99.90
2019-04-16T05:16:39.827Z,99.90
2019-04-16T05:19:13.739Z,99.80
2019-04-16T05:21:41.816Z,95.90
2019-04-16T05:24:12.536Z,91.60
2019-04-16T05:26:42.892Z,89.60
2019-04-16T05:29:16.987Z,84.40
2019-04-16T05:31:44.808Z,80.30
2019-04-16T05:34:17.715Z,79.00
2019-04-16T05:36:48.116Z,74.90
2019-04-16T05:39:18.400Z,71.70
2019-04-16T05:41:50.461Z,71.10
2019-04-16T05:44:20.224Z,66.20
2019-04-16T05:46:50.303Z,65.30
2019-04-16T05:49:24.662Z,61.90
2019-04-16T05:51:52.570Z,62.50
2019-04-16T05:54:33.472Z,59.70
2019-04-16T05:57:03.653Z,58.10
2019-04-16T05:59:34.452Z,57.30
2019-04-16T06:02:10.670Z,55.10
2019-04-16T06:04:40.992Z,53.90
2019-04-16T06:07:11.514Z,52.70
2019-04-16T06:09:44.484Z,52.10
2019-04-16T06:12:13.129Z,51.90
2019-04-16T06:15:11.810Z,51.40
2019-04-16T06:17:51.272Z,51.00
2019-04-16T06:20:46.319Z,48.50
2019-04-16T06:23:41.768Z,48.00
2019-04-16T06:26:20.599Z,47.40
2019-04-16T06:29:00.160Z,47.40
2019-04-16T06:31:36.308Z,47.00
2019-04-16T06:34:18.934Z,45.70
2019-04-16T06:37:00.317Z,44.80
2019-04-16T06:39:43.298Z,43.50
2019-04-16T06:42:38.326Z,43.30
2019-04-16T06:45:26.497Z,42.70
2019-04-16T06:48:13.192Z,43.00
2019-04-16T06:51:11.678Z,41.90
2019-04-16T06:53:48.449Z,41.30
2019-04-16T06:56:37.466Z,41.50
2019-04-16T06:59:26.378Z,41.30
2019-04-16T07:02:13.562Z,40.00
2019-04-16T07:05:01.234Z,40.40
2019-04-16T07:07:49.443Z,39.50
2019-04-16T07:10:21.962Z,39.50
2019-04-16T07:12:52.217Z,38.30
2019-04-16T07:15:23.757Z,38.90
2019-04-16T07:17:54.098Z,37.30
2019-04-16T07:20:26.949Z,37.70
2019-04-16T07:22:56.913Z,35.60
2019-04-16T07:25:28.912Z,35.00
2019-04-16T07:28:04.134Z,34.10
2019-04-16T07:30:45.142Z,33.70
2019-04-16T07:33:46.533Z,33.10
2019-04-16T07:36:34.233Z,32.00
2019-04-16T07:39:36.849Z,32.60
2019-04-16T07:42:10.542Z,34.60
2019-04-16T07:44:42.171Z,34.80
2019-04-16T07:47:26.122Z,34.40
2019-04-16T07:50:02.960Z,33.50
2019-04-16T07:52:42.728Z,32.10
2019-04-16T07:55:30.944Z,31.70
2019-04-16T07:58:01.960Z,31.40
2019-04-16T08:00:31.996Z,31.20
2019-04-16T08:03:01.927Z,30.60
2019-04-16T08:05:33.007Z,30.90
2019-04-16T08:08:03.236Z,30.00
2019-04-16T08:10:33.141Z,30.00
2019-04-16T08:13:20.483Z,30.20
2019-04-16T08:15:50.553Z,30.00
2019-04-16T08:18:20.897Z,31.30
2019-04-16T08:21:01.223Z,30.70
2019-04-16T08:23:39.143Z,29.60
2019-04-16T08:26:12.857Z,29.70
2019-04-16T08:28:41.178Z,28.80
2019-04-16T08:31:24.331Z,28.90
2019-04-16T08:33:54.421Z,29.30
2019-04-16T08:36:24.441Z,30.30
2019-04-16T08:38:55.429Z,30.50
2019-04-16T08:41:25.636Z,29.60
2019-04-16T08:43:55.739Z,27.50
2019-04-16T08:46:28.148Z,28.20
2019-04-16T08:48:58.377Z,29.50
2019-04-16T08:51:30.883Z,29.50
2019-04-16T08:54:00.123Z,31.00
2019-04-16T08:56:30.572Z,30.90
2019-04-16T08:59:01.424Z,30.00
2019-04-16T09:01:33.276Z,29.40
2019-04-16T09:04:03.558Z,29.50
2019-04-16T09:06:33.788Z,28.60
2019-04-16T09:09:24.729Z,29.60
2019-04-16T09:11:57.259Z,30.00
2019-04-16T09:14:29.587Z,28.30
2019-04-16T09:17:17.655Z,28.90
2019-04-16T09:20:15.902Z,28.80
2019-04-16T09:22:49.115Z,28.00
2019-04-16T09:25:36.673Z,26.60
2019-04-16T09:28:25.240Z,24.50
2019-04-16T09:31:23.300Z,25.90
2019-04-16T09:34:06.987Z,26.70
2019-04-16T09:36:54.697Z,28.40
2019-04-16T09:39:52.743Z,28.80
2019-04-16T09:42:22.962Z,28.70
2019-04-16T09:44:52.969Z,28.20
2019-04-16T09:47:23.361Z,28.20
2019-04-16T09:49:53.398Z,28.40
2019-04-16T09:52:24.165Z,28.70
2019-04-16T09:54:54.225Z,27.90
2019-04-16T09:57:24.520Z,27.40
2019-04-16T09:59:59.056Z,28.00
2019-04-16T10:02:32.777Z,27.20
2019-04-16T10:05:03.372Z,27.60
2019-04-16T10:07:33.809Z,28.10
2019-04-16T10:10:06.965Z,28.70
2019-04-16T10:12:36.938Z,27.90
2019-04-16T10:15:08.325Z,27.30
2019-04-16T10:17:38.310Z,26.50
2019-04-16T10:20:09.008Z,26.40
2019-04-16T10:22:39.210Z,25.70
2019-04-16T10:25:13.890Z,25.90
2019-04-16T10:27:50.521Z,26.80
2019-04-16T10:30:30.101Z,26.20
2019-04-16T10:32:59.734Z,27.20
2019-04-16T10:35:29.827Z,27.50
2019-04-16T10:38:04.963Z,26.30
2019-04-16T10:40:41.291Z,26.30
2019-04-16T10:43:43.694Z,25.50
2019-04-16T10:46:09.769Z,25.80
2019-04-16T10:48:47.519Z,25.70
2019-04-16T10:51:26.608Z,25.50
2019-04-16T10:54:00.903Z,25.60
2019-04-16T10:56:56.725Z,26.70
2019-04-16T10:59:43.949Z,27.40
2019-04-16T11:02:39.244Z,27.30
2019-04-16T11:05:20.272Z,27.60
2019-04-16T11:07:51.546Z,27.80
2019-04-16T11:10:21.980Z,27.60
2019-04-16T11:12:51.955Z,27.70
2019-04-16T11:15:24.178Z,29.00
2019-04-16T11:17:54.485Z,30.00
2019-04-16T11:20:27.999Z,29.40
2019-04-16T11:22:58.118Z,29.60
2019-04-16T11:25:27.987Z,29.60
2019-04-16T11:27:58.390Z,29.30
2019-04-16T11:30:43.271Z,29.50
2019-04-16T11:33:13.437Z,29.40
2019-04-16T11:35:43.411Z,29.50
2019-04-16T11:38:17.102Z,28.80
2019-04-16T11:40:45.471Z,28.20
2019-04-16T11:43:15.429Z,28.30
2019-04-16T11:45:45.551Z,27.70
2019-04-16T11:48:15.734Z,28.80
2019-04-16T11:50:46.287Z,28.90
2019-04-16T11:53:16.189Z,29.20
2019-04-16T11:55:46.209Z,30.10
2019-04-16T11:58:35.416Z,30.30
2019-04-16T12:01:23.454Z,30.60
2019-04-16T12:04:07.476Z,31.40
2019-04-16T12:07:09.267Z,32.60
2019-04-16T12:09:57.554Z,33.50
2019-04-16T12:12:33.691Z,31.10
2019-04-16T12:15:17.819Z,31.20
2019-04-16T12:18:01.025Z,31.20
2019-04-16T12:20:48.701Z,29.00
2019-04-16T12:23:36.901Z,29.20
2019-04-16T12:26:21.603Z,29.00
2019-04-16T12:29:07.026Z,29.30
2019-04-16T12:31:55.543Z,30.00
2019-04-16T12:34:31.348Z,30.20
2019-04-16T12:37:29.247Z,30.40
2019-04-16T12:40:27.563Z,31.00
2019-04-16T12:43:16.121Z,30.20
2019-04-16T12:46:08.027Z,31.40
2019-04-16T12:48:57.518Z,30.70
2019-04-16T12:51:32.319Z,29.70
2019-04-16T12:54:28.794Z,30.40
2019-04-16T12:57:20.823Z,30.00
2019-04-16T13:00:10.686Z,30.50
2019-04-16T13:02:58.549Z,30.20
2019-04-16T13:05:37.273Z,29.90
2019-04-16T13:08:32.193Z,30.00
2019-04-16T13:11:18.996Z,30.70
2019-04-16T13:14:07.378Z,31.90
2019-04-16T13:16:59.534Z,32.40
2019-04-16T13:19:51.222Z,32.20
2019-04-16T13:22:22.694Z,32.60
2019-04-16T13:24:59.158Z,33.60
2019-04-16T13:27:35.892Z,32.80
2019-04-16T13:30:07.536Z,31.80
2019-04-16T13:32:37.747Z,31.80
2019-04-16T13:35:08.671Z,31.80
2019-04-16T13:37:38.646Z,31.60
2019-04-16T13:40:14.358Z,33.00
2019-04-16T13:42:44.675Z,32.00
2019-04-16T13:45:32.220Z,33.00
2019-04-16T13:48:16.102Z,33.00
2019-04-16T13:50:55.410Z,33.30
2019-04-16T13:53:47.554Z,32.50
2019-04-16T13:56:51.546Z,33.40
2019-04-16T13:59:54.990Z,33.60
2019-04-16T14:02:44.652Z,33.70
2019-04-16T14:05:15.679Z,34.40
2019-04-16T14:07:45.681Z,34.10
2019-04-16T14:10:16.379Z,34.90
2019-04-16T14:12:46.696Z,33.90
2019-04-16T14:15:31.252Z,34.60
2019-04-16T14:17:52.959Z,34.70
2019-04-16T14:20:22.051Z,35.00
2019-04-16T14:22:54.296Z,34.10
2019-04-16T14:25:24.330Z,34.40
2019-04-16T14:27:55.581Z,34.00
2019-04-16T14:30:30.370Z,33.20
2019-04-16T14:33:01.178Z,33.90
2019-04-16T14:35:34.166Z,33.80
2019-04-16T14:38:04.334Z,34.50
2019-04-16T14:40:34.565Z,34.20
2019-04-16T14:43:04.779Z,34.70
2019-04-16T14:45:56.943Z,35.20
2019-04-16T14:48:10.501Z,36.10
2019-04-16T14:50:40.846Z,35.90
2019-04-16T14:53:11.144Z,36.50
2019-04-16T14:55:59.891Z,35.10
2019-04-16T14:58:32.972Z,35.20
2019-04-16T15:01:25.041Z,35.20
2019-04-16T15:04:13.167Z,34.90
2019-04-16T15:07:14.238Z,34.50
2019-04-16T15:10:03.005Z,35.80
2019-04-16T15:12:58.315Z,34.30
2019-04-16T15:15:36.377Z,35.90
2019-04-16T15:18:26.769Z,36.60
2019-04-16T15:21:24.468Z,36.50
2019-04-16T15:24:06.042Z,36.80
2019-04-16T15:26:52.441Z,36.40
2019-04-16T15:29:45.144Z,37.40
2019-04-16T15:32:23.570Z,37.30
2019-04-16T15:34:53.548Z,38.10
2019-04-16T15:37:28.343Z,38.70
2019-04-16T15:40:08.299Z,38.60
2019-04-16T15:42:55.748Z,38.40
2019-04-16T15:45:36.644Z,38.20
2019-04-16T15:48:14.897Z,38.60
2019-04-16T15:51:01.648Z,38.60
2019-04-16T15:53:57.279Z,38.90
2019-04-16T15:56:36.302Z,39.30
2019-04-16T15:59:31.599Z,39.60
2019-04-16T16:02:19.314Z,39.70
2019-04-16T16:05:01.649Z,40.40
2019-04-16T16:07:37.384Z,40.00
2019-04-16T16:10:14.253Z,39.70
2019-04-16T16:12:45.044Z,39.90
2019-04-16T16:15:15.087Z,40.60
2019-04-16T16:17:45.063Z,40.80
2019-04-16T16:20:15.420Z,40.60
2019-04-16T16:22:46.049Z,41.00
2019-04-16T16:25:16.120Z,41.20
2019-04-16T16:27:47.131Z,41.50
2019-04-16T16:30:18.019Z,42.00
2019-04-16T16:32:49.588Z,42.40
2019-04-16T16:35:19.843Z,42.90
2019-04-16T16:37:50.079Z,43.30
2019-04-16T16:40:24.240Z,43.60
2019-04-16T16:42:54.473Z,44.30
2019-04-16T16:45:36.376Z,44.50
2019-04-16T16:48:06.814Z,44.80
2019-04-16T16:50:36.683Z,45.10
2019-04-16T16:53:22.411Z,45.60
2019-04-16T16:55:55.166Z,45.80
2019-04-16T16:58:51.360Z,46.10
2019-04-16T17:01:43.365Z,46.40
2019-04-16T17:04:16.918Z,46.70
2019-04-16T17:06:47.120Z,47.20
2019-04-16T17:09:30.394Z,47.60
2019-04-16T17:11:59.602Z,47.80
2019-04-16T17:14:29.818Z,47.90
2019-04-16T17:17:13.459Z,48.10
2019-04-16T17:19:32.359Z,48.60
2019-04-16T17:22:02.566Z,48.90
2019-04-16T17:24:32.711Z,49.00
2019-04-16T17:27:02.839Z,49.60
2019-04-16T17:29:32.972Z,50.10
2019-04-16T17:32:03.051Z,51.00
2019-04-16T17:34:33.218Z,50.50
2019-04-16T17:37:03.554Z,50.80
2019-04-16T17:39:54.491Z,51.00
2019-04-16T17:42:37.530Z,51.20
2019-04-16T17:45:25.003Z,51.60
2019-04-16T17:48:01.779Z,51.90
2019-04-16T17:50:39.561Z,52.20
2019-04-16T17:53:29.290Z,52.20
2019-04-16T17:56:15.560Z,52.40
2019-04-16T17:58:51.939Z,52.90
2019-04-16T18:01:40.351Z,52.90
2019-04-16T18:04:30.257Z,52.70
2019-04-16T18:07:25.367Z,53.10
2019-04-16T18:10:33.686Z,53.50
2019-04-16T18:13:20.896Z,53.80
2019-04-16T18:16:19.842Z,54.40
2019-04-16T18:18:56.776Z,54.80
2019-04-16T18:21:41.943Z,55.00
2019-04-16T18:24:23.035Z,55.30
2019-04-16T18:27:11.545Z,55.60
2019-04-16T18:29:47.033Z,55.70
2019-04-16T18:32:38.907Z,55.90
2019-04-16T18:35:23.879Z,56.00
2019-04-16T18:38:28.170Z,56.40
2019-04-16T18:41:12.206Z,56.60
2019-04-16T18:43:52.426Z,56.70
2019-04-16T18:46:44.537Z,56.90
2019-04-16T18:49:18.175Z,57.10
2019-04-16T18:51:49.490Z,57.30
2019-04-16T18:54:19.992Z,58.10
2019-04-16T18:56:50.484Z,59.10
2019-04-16T18:59:20.777Z,59.40
2019-04-16T19:01:54.601Z,59.70
2019-04-16T19:04:25.239Z,60.00
2019-04-16T19:06:55.276Z,60.20
2019-04-16T19:09:25.652Z,60.20
2019-04-16T19:11:55.558Z,60.50
2019-04-16T19:14:25.854Z,60.80
2019-04-16T19:16:55.886Z,61.70
2019-04-16T19:19:26.075Z,62.20
2019-04-16T19:21:56.237Z,62.90
2019-04-16T19:24:26.641Z,63.90
2019-04-16T19:26:56.845Z,64.60
2019-04-16T19:29:27.287Z,65.10
2019-04-16T19:31:57.813Z,65.40
2019-04-16T19:34:28.149Z,66.00
2019-04-16T19:37:00.190Z,66.70
2019-04-16T19:39:29.975Z,66.90
2019-04-16T19:42:00.581Z,67.50
2019-04-16T19:44:33.520Z,68.00
2019-04-16T19:47:02.422Z,68.80
2019-04-16T19:49:32.952Z,69.60
2019-04-16T19:52:03.018Z,70.30
2019-04-16T19:54:33.014Z,71.20
2019-04-16T19:57:03.798Z,72.10
2019-04-16T19:59:33.829Z,73.00
2019-04-16T20:02:03.947Z,74.00
2019-04-16T20:04:34.003Z,74.80
2019-04-16T20:07:04.086Z,76.00
2019-04-16T20:09:34.486Z,77.60
2019-04-16T20:12:04.630Z,78.90
2019-04-16T20:14:36.263Z,81.30
2019-04-16T20:17:06.289Z,85.20
2019-04-16T20:19:56.010Z,87.20
2019-04-16T20:22:26.921Z,90.00
2019-04-16T20:24:57.074Z,92.60
2019-04-16T20:27:27.162Z,94.90
2019-04-16T20:29:57.492Z,98.30
2019-04-16T20:32:30.846Z,99.90
2019-04-16T20:35:01.358Z,99.90
2019-04-16T20:37:31.510Z,99.90
2019-04-16T20:40:02.184Z,99.90
2019-04-16T20:42:32.130Z,99.90
2019-04-16T20:45:02.412Z,99.90
2019-04-16T20:47:38.548Z,99.90
2019-04-16T20:50:07.748Z,99.90
2019-04-16T20:52:37.839Z,99.90
2019-04-16T20:55:08.927Z,99.90
2019-04-16T20:57:39.336Z,99.90
2019-04-16T21:00:12.703Z,99.90
2019-04-16T21:02:43.192Z,99.90
2019-04-16T21:05:21.977Z,99.90
2019-04-16T21:07:47.192Z,99.90
2019-04-16T21:10:17.825Z,99.90
2019-04-16T21:12:48.532Z,99.90
2019-04-16T21:15:18.574Z,99.90
2019-04-16T21:17:48.668Z,99.90
2019-04-16T21:20:20.296Z,99.90
2019-04-16T21:22:50.278Z,99.90
2019-04-16T21:25:20.200Z,99.90
2019-04-16T21:28:02.513Z,99.90
2019-04-16T21:30:33.201Z,99.90
2019-04-16T21:33:20.439Z,99.90
2019-04-16T21:35:52.328Z,99.90
2019-04-16T21:38:30.168Z,99.90
2019-04-16T21:41:00.016Z,99.90
2019-04-16T21:43:29.913Z,99.90
2019-04-16T21:45:59.781Z,99.90
2019-04-16T21:48:29.786Z,99.90
2019-04-16T21:50:59.668Z,99.90
2019-04-16T21:53:29.641Z,99.90
2019-04-16T21:55:59.570Z,99.90
2019-04-16T21:58:29.471Z,99.90
2019-04-16T22:01:07.020Z,99.90
2019-04-16T22:03:41.886Z,99.90
2019-04-16T22:06:09.379Z,99.90
2019-04-16T22:08:40.252Z,99.90
2019-04-16T22:11:11.859Z,99.90
2019-04-16T22:13:42.707Z,99.90
2019-04-16T22:16:13.194Z,99.90
2019-04-16T22:18:44.351Z,99.90
2019-04-16T22:21:14.514Z,99.90
2019-04-16T22:23:44.696Z,99.90
2019-04-16T22:26:16.690Z,99.90
2019-04-16T22:28:46.686Z,99.90
2019-04-16T22:31:16.662Z,99.90
2019-04-16T22:33:46.515Z,99.90
2019-04-16T22:36:16.420Z,99.90
2019-04-16T22:38:49.786Z,99.90
2019-04-16T22:41:37.581Z,99.90
2019-04-16T22:44:20.446Z,99.90
2019-04-16T22:46:54.153Z,99.90
2019-04-16T22:49:24.119Z,99.90
2019-04-16T22:51:54.689Z,99.90
2019-04-16T22:54:24.645Z,99.90
2019-04-16T22:57:02.699Z,99.90
2019-04-16T22:59:32.935Z,99.90
2019-04-16T23:02:05.665Z,99.90
2019-04-16T23:04:35.718Z,99.90
2019-04-16T23:07:07.054Z,99.90
2019-04-16T23:09:37.845Z,99.90
2019-04-16T23:12:08.504Z,99.90
2019-04-16T23:14:39.827Z,99.90
2019-04-16T23:17:13.442Z,99.90
2019-04-16T23:19:41.317Z,99.90
2019-04-16T23:22:14.207Z,99.90
2019-04-16T23:24:43.393Z,99.90
2019-04-16T23:27:13.484Z,99.90
2019-04-16T23:29:47.330Z,99.90
2019-04-16T23:32:15.475Z,99.90
2019-04-16T23:34:45.460Z,99.90
2019-04-16T23:37:16.322Z,99.90
2019-04-16T23:39:46.362Z,99.90
2019-04-16T23:42:19.093Z,99.90
2019-04-16T23:45:16.046Z,99.90
2019-04-16T23:48:02.088Z,99.90
2019-04-16T23:50:54.391Z,99.90
2019-04-16T23:53:43.371Z,99.90
2019-04-16T23:56:29.517Z,99.90
2019-04-16T23:59:21.723Z,99.90
